Time;durP1;ratioP1;P1;durP2;ratioP2;P2;SDS_P1;SDS_P2;PMS_P1;PMS_P2;Temp;Humidity;BMP_temperature;BMP_pressure;BME280_temperature;BME280_humidity;BME280_pressure;Samples;Min_cycle;Max_cycle;Signal;HPM_P1;HPM_P2
2023/10/31 00:00:50;;;;;;;21.30;11.80;;;;;;;15.21;76.72;98979.22;109636;1251;68513;-55
2023/10/31 00:03:17;;;;;;;27.50;13.40;;;;;;;15.26;76.75;98972.45;109607;1250;72601;-56
2023/10/31 00:05:44;;;;;;;28.50;14.90;;;;;;;15.25;76.85;98968.17;109620;1252;60630;-55
2023/10/31 00:08:10;;;;;;;26.60;13.40;;;;;;;15.19;77.04;98973.84;109662;1253;59821;-55
2023/10/31 00:10:37;;;;;;;24.50;13.50;;;;;;;15.22;77.23;98975.21;109643;1251;74590;-57
2023/10/31 00:13:04;;;;;;;88.40;36.60;;;;;;;15.18;77.41;98974.04;109616;1251;68526;-56
2023/10/31 00:15:30;;;;;;;190.10;90.10;;;;;;;15.17;77.34;98978.17;109606;1251;72515;-56
2023/10/31 00:17:57;;;;;;;107.40;48.30;;;;;;;14.94;78.06;98970.24;109608;1250;60667;-55
2023/10/31 00:20:24;;;;;;;106.70;45.80;;;;;;;15.10;77.53;98970.83;109604;1251;60280;-55
2023/10/31 00:22:50;;;;;;;48.40;21.10;;;;;;;15.17;77.11;98969.78;109653;1251;74276;-55
2023/10/31 00:25:17;;;;;;;78.30;33.00;;;;;;;15.15;77.03;98973.44;109655;1251;68540;-55
2023/10/31 00:27:44;;;;;;;61.80;28.70;;;;;;;15.15;77.52;98974.09;109591;1251;72847;-55
2023/10/31 00:30:11;;;;;;;73.50;33.80;;;;;;;15.19;77.20;98976.67;109714;1251;60514;-55
2023/10/31 00:32:38;;;;;;;144.50;63.00;;;;;;;15.22;76.61;98976.66;109709;1251;60043;-55
2023/10/31 00:35:05;;;;;;;94.50;42.90;;;;;;;15.28;76.44;98973.75;109730;1250;74182;-55
2023/10/31 00:37:32;;;;;;;41.20;19.60;;;;;;;15.31;76.29;98976.94;109623;1253;68520;-54
2023/10/31 00:39:58;;;;;;;31.40;15.00;;;;;;;15.34;75.87;98974.60;109659;1251;72639;-54
2023/10/31 00:42:25;;;;;;;30.20;15.80;;;;;;;15.23;77.03;98981.05;109708;1251;60415;-54
2023/10/31 00:44:52;;;;;;;36.00;15.30;;;;;;;15.30;76.15;98979.22;109364;1251;59791;-54
2023/10/31 00:47:19;;;;;;;80.40;29.30;;;;;;;15.33;76.30;98975.33;109755;1251;75464;-54
2023/10/31 00:49:45;;;;;;;42.50;20.10;;;;;;;15.39;75.76;98977.77;109752;1251;68711;-54
2023/10/31 00:52:12;;;;;;;32.60;16.90;;;;;;;15.42;75.43;98981.77;109385;1250;72610;-56
2023/10/31 00:54:38;;;;;;;27.10;14.80;;;;;;;15.46;74.96;98982.23;109707;1250;62004;-55
2023/10/31 00:57:05;;;;;;;27.70;15.80;;;;;;;15.49;74.97;98979.59;109224;1251;60524;-54
2023/10/31 00:59:33;;;;;;;24.70;14.40;;;;;;;15.38;75.82;98971.34;109738;1250;75441;-54
2023/10/31 01:02:00;;;;;;;30.90;14.90;;;;;;;15.36;76.70;98972.52;109731;1251;68810;-55
2023/10/31 01:04:26;;;;;;;29.70;16.10;;;;;;;15.42;76.36;98968.94;109711;1250;71818;-54
2023/10/31 01:06:53;;;;;;;37.10;16.70;;;;;;;15.49;76.12;98969.73;109310;1250;61974;-55
2023/10/31 01:09:20;;;;;;;33.90;15.20;;;;;;;15.42;76.80;98966.93;109768;1251;60437;-55
2023/10/31 01:11:46;;;;;;;25.80;14.40;;;;;;;15.37;77.49;98970.91;109701;1250;75432;-54
2023/10/31 01:14:13;;;;;;;22.80;13.80;;;;;;;15.32;77.31;98967.94;109728;1251;67908;-55
2023/10/31 01:16:40;;;;;;;31.70;15.60;;;;;;;15.25;78.09;98959.56;109748;1251;72507;-56
2023/10/31 01:19:07;;;;;;;25.40;14.00;;;;;;;15.25;77.91;98962.77;109718;1250;60660;-56
2023/10/31 01:21:33;;;;;;;32.50;15.10;;;;;;;15.29;77.71;98950.52;109751;1250;60276;-55
2023/10/31 01:24:00;;;;;;;26.30;13.00;;;;;;;15.31;77.09;98951.38;109528;1253;74298;-55
2023/10/31 01:26:27;;;;;;;31.20;14.20;;;;;;;15.41;76.33;98949.98;109602;1253;68938;-55
2023/10/31 01:28:54;;;;;;;23.80;13.30;;;;;;;15.39;76.62;98951.75;109516;1253;71203;-55
2023/10/31 01:31:20;;;;;;;27.50;13.70;;;;;;;15.37;76.97;98951.35;109575;1252;61643;-55
2023/10/31 01:33:47;;;;;;;24.30;12.00;;;;;;;15.36;76.11;98952.99;109537;1252;59900;-55
2023/10/31 01:36:14;;;;;;;26.20;14.80;;;;;;;15.01;78.12;98948.61;109593;1253;75490;-55
2023/10/31 01:38:40;;;;;;;30.30;15.20;;;;;;;14.92;79.85;98945.91;109577;1253;66896;-57
2023/10/31 01:41:07;;;;;;;27.70;13.90;;;;;;;14.98;78.95;98948.50;109567;1253;71556;-55
2023/10/31 01:43:37;;;;;;;27.40;14.40;;;;;;;15.00;78.62;98946.56;109559;1253;61954;-55
2023/10/31 01:46:04;;;;;;;27.50;14.20;;;;;;;15.00;78.22;98941.72;109572;1253;60174;-55
2023/10/31 01:48:32;;;;;;;29.70;13.60;;;;;;;14.86;79.00;98937.31;109579;1253;75191;-55
2023/10/31 01:50:59;;;;;;;31.50;13.70;;;;;;;14.84;79.93;98940.48;109561;1250;68778;-56
2023/10/31 01:53:26;;;;;;;30.50;15.20;;;;;;;14.73;80.86;98936.02;109737;1250;72535;-55
2023/10/31 01:55:53;;;;;;;25.70;14.50;;;;;;;14.44;82.96;98932.45;109747;1251;61972;-55
2023/10/31 01:58:21;;;;;;;29.60;15.40;;;;;;;13.72;88.56;98925.55;109242;1251;60014;-55
2023/10/31 02:00:47;;;;;;;26.40;16.10;;;;;;;13.98;87.31;98930.16;109660;1251;74169;-55
2023/10/31 02:03:15;;;;;;;31.40;16.00;;;;;;;13.54;90.10;98920.25;109608;1251;67389;-55
2023/10/31 02:05:41;;;;;;;42.00;24.30;;;;;;;13.38;92.08;98916.48;109728;1251;71855;-56
2023/10/31 02:08:08;;;;;;;60.80;30.80;;;;;;;13.42;91.72;98920.14;109684;1250;60610;-56
2023/10/31 02:10:34;;;;;;;70.40;36.30;;;;;;;13.47;92.44;98916.58;109783;1251;59791;-56
2023/10/31 02:13:14;;;;;;;65.50;35.90;;;;;;;13.47;92.73;98913.52;109771;1250;75393;-56
2023/10/31 02:15:41;;;;;;;60.40;33.80;;;;;;;13.38;93.24;98912.54;109715;1251;68631;-56
2023/10/31 02:18:08;;;;;;;91.80;52.90;;;;;;;13.32;93.70;98917.09;109714;1250;71563;-56
2023/10/31 02:20:34;;;;;;;90.20;49.30;;;;;;;13.27;94.31;98913.69;109621;1251;60529;-56
2023/10/31 02:23:02;;;;;;;72.10;40.40;;;;;;;13.24;95.00;98914.08;109682;1251;60602;-56
2023/10/31 02:25:29;;;;;;;35.90;20.20;;;;;;;13.14;95.29;98918.59;109561;1251;76475;-54
2023/10/31 02:27:57;;;;;;;33.40;20.10;;;;;;;13.05;96.06;98918.31;109657;1251;68706;-54
2023/10/31 02:30:24;;;;;;;28.70;18.40;;;;;;;12.94;97.03;98914.10;109651;1251;72690;-53
2023/10/31 02:32:51;;;;;;;34.70;20.00;;;;;;;12.92;97.50;98917.58;109733;1251;61839;-55
2023/10/31 02:35:17;;;;;;;32.70;17.50;;;;;;;12.89;97.87;98917.94;109767;1251;59720;-55
2023/10/31 02:37:47;;;;;;;32.60;17.10;;;;;;;12.84;98.29;98912.81;109699;1251;73657;-55
2023/10/31 02:40:14;;;;;;;30.90;17.00;;;;;;;12.80;98.72;98913.81;109731;1251;66478;-55
2023/10/31 02:42:41;;;;;;;26.60;14.30;;;;;;;12.64;99.83;98911.38;109724;1251;72543;-54
2023/10/31 02:45:07;;;;;;;30.30;12.90;;;;;;;12.48;100.00;98913.94;109297;1251;62032;-55
2023/10/31 02:47:34;;;;;;;22.80;14.10;;;;;;;12.48;100.00;98908.02;109748;1251;59800;-54
2023/10/31 02:50:01;;;;;;;22.10;12.30;;;;;;;12.45;100.00;98909.77;109724;1251;75470;-55
2023/10/31 02:52:28;;;;;;;24.90;14.10;;;;;;;12.55;100.00;98911.03;109625;1251;67978;-56
2023/10/31 02:54:55;;;;;;;28.30;14.20;;;;;;;12.63;100.00;98911.11;109604;1251;59818;-56
2023/10/31 02:57:21;;;;;;;27.10;12.40;;;;;;;12.66;100.00;98912.39;109749;1251;60636;-56
2023/10/31 02:59:48;;;;;;;27.00;13.40;;;;;;;12.62;100.00;98909.61;109620;1251;60421;-56
2023/10/31 03:02:15;;;;;;;27.20;14.70;;;;;;;12.68;100.00;98900.40;109705;1255;75336;-55
2023/10/31 03:04:42;;;;;;;24.40;13.70;;;;;;;12.57;100.00;98927.80;109594;1253;68677;-54
2023/10/31 03:07:08;;;;;;;25.40;12.50;;;;;;;12.61;100.00;98920.77;109622;1252;72557;-55
2023/10/31 03:09:35;;;;;;;31.20;15.70;;;;;;;12.70;100.00;98912.41;109277;1251;61999;-56
2023/10/31 03:12:02;;;;;;;38.00;18.10;;;;;;;12.64;100.00;98912.17;109587;1252;59832;-55
2023/10/31 03:14:30;;;;;;;31.10;14.80;;;;;;;12.50;100.00;98919.84;109108;1253;75363;-55
2023/10/31 03:16:56;;;;;;;26.60;14.40;;;;;;;12.48;100.00;98918.14;109591;1253;68713;-55
2023/10/31 03:19:23;;;;;;;30.80;16.50;;;;;;;12.45;100.00;98916.16;109250;1253;72655;-56
2023/10/31 03:21:50;;;;;;;44.90;25.20;;;;;;;12.46;100.00;98915.55;109539;1253;61957;-55
2023/10/31 03:24:16;;;;;;;30.70;16.40;;;;;;;12.51;100.00;98913.20;109224;1253;60344;-55
2023/10/31 03:26:43;;;;;;;32.60;17.00;;;;;;;12.44;100.00;98912.99;109647;1251;75732;-57
2023/10/31 03:29:10;;;;;;;29.60;15.80;;;;;;;12.36;100.00;98910.21;109358;1253;68901;-56
2023/10/31 03:31:38;;;;;;;25.80;13.80;;;;;;;12.32;100.00;98907.16;109252;1253;72497;-57
2023/10/31 03:34:05;;;;;;;25.00;14.00;;;;;;;12.37;100.00;98910.47;109220;1253;61065;-56
2023/10/31 03:36:32;;;;;;;27.10;13.90;;;;;;;12.43;100.00;98915.91;109592;1253;60251;-56
2023/10/31 03:39:00;;;;;;;26.10;13.30;;;;;;;12.40;100.00;98916.05;109241;1253;75746;-55
2023/10/31 03:41:26;;;;;;;23.80;14.20;;;;;;;12.36;100.00;98915.05;109512;1252;68673;-55
2023/10/31 03:43:53;;;;;;;28.40;14.00;;;;;;;12.34;100.00;98912.21;109250;1253;73210;-55
2023/10/31 03:46:20;;;;;;;25.60;13.40;;;;;;;12.34;100.00;98910.48;109570;1251;60601;-55
2023/10/31 03:48:46;;;;;;;29.30;15.00;;;;;;;12.25;100.00;98913.73;109641;1251;60323;-55
2023/10/31 03:51:13;;;;;;;22.80;13.00;;;;;;;12.20;100.00;98914.77;109601;1254;73162;-55
2023/10/31 03:53:40;;;;;;;29.70;13.80;;;;;;;12.13;100.00;98910.06;109600;1251;68563;-55
2023/10/31 03:56:06;;;;;;;23.30;12.60;;;;;;;12.09;100.00;98911.80;109634;1251;72786;-55
2023/10/31 03:58:33;;;;;;;26.30;14.00;;;;;;;12.12;100.00;98913.72;109647;1251;61773;-55
2023/10/31 04:01:00;;;;;;;23.10;13.10;;;;;;;12.07;100.00;98905.24;109596;1251;60126;-55
2023/10/31 04:03:26;;;;;;;29.00;15.60;;;;;;;12.07;100.00;98896.86;109582;1251;74035;-55
2023/10/31 04:05:54;;;;;;;22.80;14.00;;;;;;;12.08;100.00;98895.99;109740;1250;67602;-55
2023/10/31 04:08:20;;;;;;;26.10;14.00;;;;;;;12.13;100.00;98896.54;109624;1251;72861;-55
2023/10/31 04:10:47;;;;;;;27.30;15.00;;;;;;;12.26;100.00;98894.14;109258;1253;62014;-55
2023/10/31 04:13:14;;;;;;;33.60;17.90;;;;;;;12.35;100.00;98898.60;109695;1251;60167;-55
2023/10/31 04:15:40;;;;;;;36.50;19.00;;;;;;;12.37;100.00;98898.63;109770;1251;74048;-54
2023/10/31 04:18:07;;;;;;;26.90;15.90;;;;;;;12.42;100.00;98902.79;109738;1251;67002;-54
2023/10/31 04:20:34;;;;;;;26.10;14.50;;;;;;;12.49;100.00;98900.80;109738;1251;71347;-54
2023/10/31 04:23:00;;;;;;;26.90;14.70;;;;;;;12.44;100.00;98901.09;109567;1252;61954;-54
2023/10/31 04:25:28;;;;;;;27.10;14.70;;;;;;;12.39;100.00;98907.11;109550;1252;60327;-54
2023/10/31 04:27:55;;;;;;;26.20;14.60;;;;;;;12.37;100.00;98906.98;109595;1251;74446;-54
2023/10/31 04:30:22;;;;;;;29.00;16.20;;;;;;;12.37;100.00;98908.91;109590;1251;67388;-55
2023/10/31 04:32:49;;;;;;;27.40;13.90;;;;;;;12.43;100.00;98906.34;109494;1251;111930;-54
2023/10/31 04:35:15;;;;;;;23.80;14.30;;;;;;;12.55;100.00;98904.41;109612;1251;59872;-54
2023/10/31 04:37:42;;;;;;;26.10;14.00;;;;;;;12.65;100.00;98905.02;109645;1251;60312;-55
2023/10/31 04:40:10;;;;;;;27.90;14.10;;;;;;;12.31;100.00;98903.80;109789;1251;75518;-55
2023/10/31 04:42:38;;;;;;;28.80;13.40;;;;;;;11.99;100.00;98911.80;109360;1251;67346;-56
2023/10/31 04:45:06;;;;;;;27.40;14.60;;;;;;;12.21;100.00;98912.85;109482;1251;71189;-56
2023/10/31 04:47:33;;;;;;;22.80;13.50;;;;;;;12.36;100.00;98913.33;109733;1250;61878;-55
2023/10/31 04:50:00;;;;;;;29.60;15.50;;;;;;;12.01;100.00;98909.45;109748;1251;59873;-55
2023/10/31 04:52:26;;;;;;;26.10;15.00;;;;;;;12.25;100.00;98913.47;109762;1251;75503;-56
2023/10/31 04:54:53;;;;;;;21.40;12.80;;;;;;;12.44;100.00;98918.01;109750;1251;68502;-55
2023/10/31 04:57:20;;;;;;;28.30;14.20;;;;;;;12.53;100.00;98914.88;109751;1251;72826;-56
2023/10/31 04:59:47;;;;;;;25.00;13.70;;;;;;;12.55;100.00;98917.86;109282;1254;60628;-55
2023/10/31 05:02:13;;;;;;;28.10;14.10;;;;;;;12.66;100.00;98921.48;109543;1257;60263;-53
2023/10/31 05:04:40;;;;;;;25.00;13.80;;;;;;;12.76;99.81;98922.36;109614;1252;74406;-54
2023/10/31 05:07:08;;;;;;;30.20;14.60;;;;;;;12.78;99.17;98920.52;109653;1252;68693;-54
2023/10/31 05:09:35;;;;;;;30.00;14.60;;;;;;;12.88;98.17;98917.46;109639;1251;71590;-54
2023/10/31 05:12:02;;;;;;;27.20;15.40;;;;;;;12.90;97.88;98920.63;109627;1251;60513;-54
2023/10/31 05:14:29;;;;;;;24.90;13.30;;;;;;;12.90;97.42;98927.73;109660;1251;59877;-54
2023/10/31 05:16:55;;;;;;;27.40;14.30;;;;;;;12.92;96.89;98928.58;109669;1251;75505;-54
2023/10/31 05:19:22;;;;;;;25.40;13.30;;;;;;;12.92;96.58;98925.66;109659;1251;68770;-54
2023/10/31 05:21:49;;;;;;;23.20;13.70;;;;;;;12.90;96.81;98928.59;109643;1251;71239;-54
2023/10/31 05:24:15;;;;;;;31.70;15.30;;;;;;;12.90;97.23;98928.92;109607;1251;60427;-54
2023/10/31 05:26:42;;;;;;;34.10;16.70;;;;;;;12.88;97.05;98929.52;109660;1251;59776;-55
2023/10/31 05:29:10;;;;;;;40.10;20.30;;;;;;;12.91;96.77;98934.46;109650;1251;74168;-55
2023/10/31 05:31:36;;;;;;;54.10;22.50;;;;;;;12.92;96.47;98936.81;109663;1250;68062;-54
2023/10/31 05:34:03;;;;;;;51.70;24.50;;;;;;;12.91;96.62;98934.08;109657;1251;72566;-54
2023/10/31 05:36:30;;;;;;;50.80;21.10;;;;;;;12.99;95.67;98928.71;109345;1251;60638;-54
2023/10/31 05:38:57;;;;;;;46.00;18.70;;;;;;;12.98;95.25;98924.58;109699;1251;60087;-53
2023/10/31 05:41:23;;;;;;;167.80;54.50;;;;;;;13.00;95.08;98927.68;109369;1251;75396;-54
2023/10/31 05:43:50;;;;;;;152.90;47.80;;;;;;;13.12;94.34;98922.94;109625;1251;67373;-54
2023/10/31 05:46:17;;;;;;;88.60;28.80;;;;;;;13.11;94.20;98921.97;109447;1251;72768;-55
2023/10/31 05:48:44;;;;;;;69.60;25.10;;;;;;;13.17;94.20;98918.40;109672;1251;61949;-54
2023/10/31 05:51:15;;;;;;;65.30;24.50;;;;;;;13.21;94.03;98913.14;109620;1251;59806;-55
2023/10/31 05:53:43;;;;;;;34.40;15.70;;;;;;;13.27;93.78;98911.79;109735;1254;73106;-54
2023/10/31 05:56:09;;;;;;;25.20;11.40;;;;;;;13.34;92.90;98911.30;109756;1251;68669;-55
2023/10/31 05:58:37;;;;;;;22.40;12.50;;;;;;;13.45;91.48;98909.92;109608;1250;72650;-54
2023/10/31 06:01:04;;;;;;;26.60;12.90;;;;;;;13.48;90.90;98915.97;109698;1250;62204;-54
2023/10/31 06:03:31;;;;;;;34.30;18.00;;;;;;;13.19;91.77;98915.27;109652;1255;59984;-54
2023/10/31 06:05:58;;;;;;;31.80;14.80;;;;;;;13.31;91.27;98911.05;109411;1259;73958;-54
2023/10/31 06:08:28;;;;;;;26.50;14.50;;;;;;;13.36;90.88;98909.23;109349;1251;66610;-54
2023/10/31 06:10:55;;;;;;;49.90;22.30;;;;;;;13.35;91.35;98911.44;109734;1251;71349;-54
2023/10/31 06:13:23;;;;;;;53.90;22.80;;;;;;;13.34;91.34;98906.81;109735;1251;62242;-55
2023/10/31 06:15:50;;;;;;;49.20;19.30;;;;;;;13.30;91.61;98904.81;109673;1250;59744;-53
2023/10/31 06:18:16;;;;;;;32.20;16.50;;;;;;;13.41;91.00;98907.44;109798;1251;75486;-54
2023/10/31 06:20:43;;;;;;;25.00;13.70;;;;;;;13.53;89.61;98912.30;109753;1251;66321;-55
2023/10/31 06:23:10;;;;;;;25.90;15.30;;;;;;;13.55;89.20;98912.39;109750;1251;72689;-55
2023/10/31 06:25:36;;;;;;;26.70;14.10;;;;;;;13.69;88.27;98910.81;109715;1251;61727;-55
2023/10/31 06:28:03;;;;;;;37.30;15.00;;;;;;;13.79;86.75;98910.89;109749;1251;59670;-54
2023/10/31 06:30:30;;;;;;;26.60;14.50;;;;;;;13.90;86.20;98914.67;109749;1251;74693;-55
2023/10/31 06:32:58;;;;;;;38.60;18.10;;;;;;;14.00;84.83;98914.55;109796;1251;67752;-55
2023/10/31 06:35:24;;;;;;;32.10;15.70;;;;;;;14.11;84.03;98907.74;109750;1251;71865;-55
2023/10/31 06:37:54;;;;;;;30.70;15.10;;;;;;;14.29;82.69;98915.24;109720;1251;62276;-55
2023/10/31 06:40:21;;;;;;;26.20;14.00;;;;;;;14.46;80.91;98916.93;109503;1251;60206;-55
2023/10/31 06:42:48;;;;;;;25.60;13.60;;;;;;;14.53;79.76;98916.13;109793;1251;75370;-56
2023/10/31 06:45:14;;;;;;;26.00;12.80;;;;;;;14.66;79.43;98916.30;109597;1251;68410;-56
2023/10/31 06:47:41;;;;;;;30.10;15.80;;;;;;;14.83;78.43;98916.00;109736;1250;72752;-56
2023/10/31 06:50:09;;;;;;;28.10;15.40;;;;;;;15.08;76.71;98916.38;109625;1253;61759;-56
2023/10/31 06:52:36;;;;;;;247.00;110.20;;;;;;;15.36;75.21;98914.21;109385;1251;60047;-56
2023/10/31 06:55:02;;;;;;;156.00;70.60;;;;;;;15.85;71.80;98911.60;109553;1251;75471;-55
2023/10/31 06:57:30;;;;;;;162.80;70.40;;;;;;;16.42;68.57;98912.26;109596;1251;67744;-56
2023/10/31 06:59:56;;;;;;;173.90;74.30;;;;;;;16.91;65.48;98908.20;109385;1251;72580;-56
2023/10/31 07:02:23;;;;;;;57.00;29.70;;;;;;;17.27;61.94;98905.77;109589;1251;61994;-56
2023/10/31 07:04:50;;;;;;;37.60;20.60;;;;;;;17.53;60.52;98903.55;109596;1252;59739;-57
2023/10/31 07:07:17;;;;;;;41.30;23.10;;;;;;;17.35;59.55;98900.66;109598;1252;73956;-57
2023/10/31 07:09:44;;;;;;;228.40;117.30;;;;;;;17.62;59.19;98900.31;109681;1251;68639;-56
2023/10/31 07:12:11;;;;;;;32.80;18.50;;;;;;;17.48;58.54;98896.49;109751;1251;71481;-57
2023/10/31 07:14:37;;;;;;;34.90;19.00;;;;;;;17.46;58.96;98891.98;109562;1254;60526;-56
2023/10/31 07:17:04;;;;;;;149.10;66.60;;;;;;;17.47;59.63;98888.92;109793;1251;60322;-56
2023/10/31 07:19:31;;;;;;;81.80;48.20;;;;;;;17.47;58.65;98887.84;109736;1251;74185;-55
2023/10/31 07:21:58;;;;;;;26.20;15.90;;;;;;;17.70;58.28;98886.13;109751;1251;68824;-56
2023/10/31 07:24:27;;;;;;;24.10;13.90;;;;;;;17.78;57.47;98881.57;109757;1250;72727;-55
2023/10/31 07:26:54;;;;;;;27.70;14.10;;;;;;;17.86;56.68;98874.77;109345;1251;60204;-55
2023/10/31 07:29:21;;;;;;;33.30;18.10;;;;;;;17.86;55.94;98879.97;109744;1251;60138;-56
2023/10/31 07:31:48;;;;;;;30.50;16.20;;;;;;;17.84;56.36;98888.02;109750;1251;74656;-55
2023/10/31 07:34:15;;;;;;;25.30;14.10;;;;;;;17.93;56.67;98887.88;109753;1251;67351;-55
2023/10/31 07:36:42;;;;;;;24.80;13.90;;;;;;;18.04;56.88;98883.27;109772;1251;72410;-55
2023/10/31 07:39:09;;;;;;;37.00;18.50;;;;;;;18.35;56.03;98878.07;109724;1251;59788;-56
2023/10/31 07:41:35;;;;;;;29.40;14.70;;;;;;;18.48;54.87;98869.13;109766;1251;60186;-55
2023/10/31 07:44:02;;;;;;;30.40;13.80;;;;;;;18.58;54.43;98865.44;109525;1251;75553;-55
2023/10/31 07:46:29;;;;;;;26.60;13.30;;;;;;;18.71;54.50;98867.86;109805;1251;68592;-55
2023/10/31 07:48:55;;;;;;;24.60;11.20;;;;;;;19.07;53.15;98866.85;109723;1251;72663;-58
2023/10/31 07:51:22;;;;;;;22.30;9.60;;;;;;;19.08;51.90;98865.18;109335;1250;60401;-55
2023/10/31 07:53:49;;;;;;;15.70;8.50;;;;;;;19.09;51.99;98862.42;109749;1251;60350;-54
2023/10/31 07:56:16;;;;;;;18.90;8.70;;;;;;;19.47;51.25;98862.61;109768;1250;73736;-55
2023/10/31 07:58:43;;;;;;;17.40;8.60;;;;;;;19.87;49.62;98861.58;109779;1251;67556;-56
2023/10/31 08:01:10;;;;;;;14.90;8.60;;;;;;;19.93;47.92;98855.83;109741;1251;72485;-55
2023/10/31 08:03:37;;;;;;;13.50;7.70;;;;;;;20.05;47.43;98856.42;109679;1251;60391;-56
2023/10/31 08:06:05;;;;;;;15.80;8.90;;;;;;;20.46;46.88;98854.27;109388;1251;59992;-56
2023/10/31 08:08:32;;;;;;;17.40;8.10;;;;;;;21.02;45.20;98846.85;109682;1251;75324;-56
2023/10/31 08:10:59;;;;;;;12.40;6.60;;;;;;;21.51;44.00;98841.52;109801;1251;67741;-55
2023/10/31 08:13:27;;;;;;;12.30;6.80;;;;;;;22.01;43.07;98841.14;109754;1251;72687;-56
2023/10/31 08:15:53;;;;;;;12.60;5.80;;;;;;;22.42;41.62;98842.34;109708;1251;60207;-56
2023/10/31 08:18:22;;;;;;;12.80;6.20;;;;;;;22.47;40.57;98839.98;109799;1250;60174;-56
2023/10/31 08:20:50;;;;;;;14.60;6.00;;;;;;;22.29;40.88;98833.02;109758;1251;74447;-56
2023/10/31 08:23:17;;;;;;;;;;;;;;;22.47;40.46;98831.23;109779;1251;68913;-56
2023/10/31 08:25:44;;;;;;;11.10;6.40;;;;;;;22.44;39.66;98822.24;109790;1251;72471;-57
2023/10/31 08:28:11;;;;;;;12.60;7.10;;;;;;;22.24;39.78;98821.63;109730;1250;59972;-56
2023/10/31 08:30:39;;;;;;;13.30;7.00;;;;;;;22.49;39.63;98821.75;109776;1251;59809;-55
2023/10/31 08:33:05;;;;;;;13.60;6.30;;;;;;;22.68;38.49;98826.30;109795;1251;75597;-56
2023/10/31 08:35:34;;;;;;;9.60;5.90;;;;;;;22.66;37.93;98821.02;109488;1251;67464;-56
2023/10/31 08:38:01;;;;;;;11.80;5.90;;;;;;;22.44;38.61;98817.47;109741;1250;72744;-56
2023/10/31 08:40:28;;;;;;;13.20;5.50;;;;;;;22.37;38.54;98809.47;109717;1251;60320;-57
2023/10/31 08:42:55;;;;;;;9.30;5.70;;;;;;;22.63;38.68;98808.38;109806;1251;60846;-56
2023/10/31 08:45:22;;;;;;;13.30;6.50;;;;;;;22.97;37.74;98812.89;109766;1250;76596;-55
2023/10/31 08:47:51;;;;;;;13.20;5.70;;;;;;;23.04;37.34;98805.48;109746;1250;68705;-56
2023/10/31 08:50:17;;;;;;;8.40;5.10;;;;;;;23.27;37.30;98805.36;109749;1250;71512;-57
2023/10/31 08:52:44;;;;;;;7.90;5.10;;;;;;;23.44;36.09;98802.00;109773;1250;60372;-56
2023/10/31 08:55:11;;;;;;;12.70;5.50;;;;;;;23.23;36.59;98800.27;109588;1251;60844;-55
2023/10/31 08:57:38;;;;;;;14.00;5.90;;;;;;;23.11;36.95;98798.76;109767;1250;75292;-56
2023/10/31 09:00:05;;;;;;;12.40;5.60;;;;;;;23.02;36.85;98795.82;109753;1250;67477;-56
2023/10/31 09:02:33;;;;;;;;;;;;;;;22.78;37.19;98791.15;109694;1251;70467;-56
2023/10/31 09:05:00;;;;;;;13.80;5.70;;;;;;;22.95;37.22;98797.59;109564;1252;59740;-56
2023/10/31 09:07:27;;;;;;;10.40;4.60;;;;;;;23.01;37.29;98792.89;109548;1252;60244;-57
2023/10/31 09:09:53;;;;;;;7.90;4.80;;;;;;;23.09;37.38;98795.29;109669;1251;75280;-56
2023/10/31 09:12:20;;;;;;;13.90;6.00;;;;;;;23.07;37.48;98788.59;109690;1251;68567;-56
2023/10/31 09:14:46;;;;;;;7.80;4.50;;;;;;;23.02;37.73;98785.95;109631;1251;73780;-57
2023/10/31 09:17:13;;;;;;;9.00;5.00;;;;;;;23.12;37.65;98780.55;109314;1253;59749;-57
2023/10/31 09:19:40;;;;;;;12.50;5.20;;;;;;;23.13;37.40;98779.81;109368;1252;59753;-57
2023/10/31 09:22:07;;;;;;;7.80;4.50;;;;;;;23.09;37.49;98771.28;109595;1251;75413;-56
2023/10/31 09:24:33;;;;;;;9.50;4.70;;;;;;;22.92;37.81;98776.33;109655;1251;68740;-55
2023/10/31 09:27:00;;;;;;;11.00;5.10;;;;;;;22.76;38.16;98776.55;109270;1251;72621;-56
2023/10/31 09:29:27;;;;;;;11.20;5.90;;;;;;;22.91;38.25;98777.46;109451;1251;59850;-56
2023/10/31 09:31:56;;;;;;;9.90;6.00;;;;;;;23.12;38.23;98774.86;109651;1251;60539;-57
2023/10/31 09:34:23;;;;;;;9.40;5.40;;;;;;;23.10;38.12;98771.38;109605;1251;75624;-54
2023/10/31 09:36:50;;;;;;;10.50;5.50;;;;;;;22.98;37.85;98768.04;109689;1250;67514;-57
2023/10/31 09:39:17;;;;;;;15.00;5.50;;;;;;;22.86;37.98;98766.34;109673;1251;72693;-55
2023/10/31 09:41:43;;;;;;;9.60;5.90;;;;;;;22.82;38.40;98769.66;109697;1251;60520;-56
2023/10/31 09:44:10;;;;;;;8.20;4.30;;;;;;;22.84;38.38;98763.55;109592;1251;60208;-55
2023/10/31 09:46:37;;;;;;;12.40;6.00;;;;;;;22.77;38.35;98760.72;109614;1251;75247;-56
2023/10/31 09:49:04;;;;;;;15.20;5.80;;;;;;;22.97;38.42;98758.09;109594;1252;68828;-56
2023/10/31 09:51:31;;;;;;;12.90;5.80;;;;;;;23.27;38.13;98753.76;109630;1250;72762;-57
2023/10/31 09:53:58;;;;;;;9.40;5.20;;;;;;;23.54;37.32;98751.13;109594;1252;60370;-57
2023/10/31 09:56:24;;;;;;;8.00;5.30;;;;;;;23.62;36.88;98746.05;109474;1251;59789;-56
2023/10/31 09:58:51;;;;;;;10.40;5.50;;;;;;;23.66;36.95;98740.64;109278;1251;75519;-56
2023/10/31 10:01:18;;;;;;;8.00;5.30;;;;;;;23.77;36.62;98741.20;109634;1250;67638;-56
2023/10/31 10:03:44;;;;;;;11.90;5.20;;;;;;;23.97;36.87;98735.40;109569;1252;72795;-57
2023/10/31 10:06:11;;;;;;;12.80;6.20;;;;;;;24.53;36.34;98733.59;109429;1253;60244;-57
2023/10/31 10:08:39;;;;;;;13.50;7.40;;;;;;;24.55;35.67;98723.11;109685;1251;60143;-58
2023/10/31 10:11:06;;;;;;;14.60;7.00;;;;;;;24.36;36.09;98721.85;109796;1250;75545;-55
2023/10/31 10:13:33;;;;;;;14.10;8.10;;;;;;;24.53;35.99;98716.81;109384;1252;66792;-56
2023/10/31 10:15:59;;;;;;;11.40;7.00;;;;;;;24.35;35.96;98717.77;109495;1250;72075;-57
2023/10/31 10:18:27;;;;;;;14.90;7.10;;;;;;;24.40;35.93;98712.73;109487;1251;59802;-57
2023/10/31 10:21:04;;;;;;;13.20;6.70;;;;;;;24.46;35.81;98704.31;109386;1250;59791;-57
2023/10/31 10:23:32;;;;;;;13.80;6.90;;;;;;;24.55;35.54;98697.80;109810;1250;75257;-56
2023/10/31 10:26:03;;;;;;;16.80;9.20;;;;;;;24.52;35.34;98696.26;109773;1250;69221;-56
2023/10/31 10:28:30;;;;;;;21.30;12.20;;;;;;;24.42;35.61;98696.19;109721;1250;72956;-57
2023/10/31 10:30:57;;;;;;;17.40;7.10;;;;;;;24.61;35.42;98688.96;109745;1251;61626;-55
2023/10/31 10:33:23;;;;;;;13.60;5.40;;;;;;;24.80;35.35;98689.24;109354;1251;62224;-56
2023/10/31 10:35:50;;;;;;;9.90;4.70;;;;;;;24.75;34.69;98688.79;109447;1250;74426;-56
2023/10/31 10:38:18;;;;;;;9.60;5.40;;;;;;;24.70;35.21;98686.52;109741;1251;68819;-56
2023/10/31 10:40:46;;;;;;;10.80;5.90;;;;;;;24.61;35.08;98681.59;109745;1250;71461;-56
2023/10/31 10:43:25;;;;;;;15.20;5.70;;;;;;;24.65;35.24;98684.71;109715;1250;59767;-56
2023/10/31 10:45:57;;;;;;;12.70;5.50;;;;;;;24.86;35.14;98679.69;109448;1251;60384;-56
2023/10/31 10:48:25;;;;;;;11.20;4.90;;;;;;;24.89;35.17;98682.86;109811;1250;75655;-56
2023/10/31 10:51:22;;;;;;;13.70;5.30;;;;;;;24.99;35.20;98680.10;109719;1250;67493;-56
2023/10/31 10:53:50;;;;;;;11.30;6.60;;;;;;;25.21;35.07;98674.14;109602;1251;72762;-59
2023/10/31 10:56:30;;;;;;;7.50;4.40;;;;;;;25.27;34.75;98653.91;109705;1250;61470;-58
2023/10/31 10:59:12;;;;;;;14.10;5.90;;;;;;;25.08;34.71;98650.02;109435;1250;59776;-56
2023/10/31 11:01:39;;;;;;;9.80;5.90;;;;;;;25.10;35.04;98647.38;109660;1251;75526;-56
2023/10/31 11:04:06;;;;;;;12.20;8.00;;;;;;;25.02;35.21;98649.09;109537;1252;68841;-57
2023/10/31 11:06:34;;;;;;;17.20;9.30;;;;;;;24.81;35.39;98644.48;109481;1251;72035;-57
2023/10/31 11:09:01;;;;;;;13.40;7.00;;;;;;;24.68;35.67;98645.31;109404;1251;59765;-58